ADDS TAF Board (Experimental) INFO Settings

IDs: Format: Expanded Condensed

KLGA - New York/La Guardia, NY, US

Issued at 0834 UTC 18 Apr 2015
Updated at: 0846 UTC 18 Apr 2015
Time0751Z 18/09Z 18/10Z 18/11Z 18/12Z 18/13Z 18/14Z 18/15Z 18/16Z 18/17Z 18/18Z 18/19Z 18/20Z 18/21Z
Type OBS PRVL PRVL PRVL PRVL PRVL PRVL PRVL PRVL PRVL PRVL PRVL PRVL PRVL
VIS 10 >6 >6 >6 >6 >6 >6 >6 >6 >6 >6 >6 >6 >6
CIG -- -- -- -- -- -- -- -- -- -- -- -- -- --
Cover FEW SKC SKC SKC SKC SKC SKC SKC SKC SKC SKC SCT SCT SCT
FltCat VFR VFR VFR VFR VFR VFR VFR VFR VFR VFR VFR VFR VFR VFR
WX -- -- -- -- -- -- -- -- -- -- -- -- -- --
WDir 310 VRB VRB VRB VRB VRB VRB VRB 260 260 260 240 240 240
WSpd 3 4 4 4 4 4 4 4 12 12 12 15 15 15
WGst -- -- -- -- -- -- -- -- 20 20 20 23 23 23
R04/22
XWnd 3 VRB VRB VRB VRB VRB VRB VRB 9 9 9 7 7 7
XGst -- -- -- -- -- -- -- -- 15 15 15 11 11 11
HWnd 0 VRB VRB VRB VRB VRB VRB VRB -8 -8 -8 -13 -13 -13
HGst -- -- -- -- -- -- -- -- -13 -13 -13 -20 -20 -20
R13/31
XWnd 0 VRB VRB VRB VRB VRB VRB VRB -8 -8 -8 -13 -13 -13
XGst -- -- -- -- -- -- -- -- -13 -13 -13 -20 -20 -20
HWnd -3 VRB VRB VRB VRB VRB VRB VRB -9 -9 -9 -7 -7 -7
HGst -- -- -- -- -- -- -- -- -15 -15 -15 -11 -11 -11

NOTE: TEMPO conditions in [brackets]. Keep in mind TEMPO conditions might be better (lower impact) than prevailing conditions.

Raw TAF
KLGA 180834Z 1809/1906 VRB04KT P6SM SKC
  FM181600 26012G20KT P6SM SKC
  FM181900 24015G23KT P6SM SCT080
  FM182200 27013G21KT P6SM SCT080
  FM190000 35013G21KT P6SM SKC


Raw METAR
KLGA 180751Z 31003KT 10SM FEW070 14/07 A2995 RMK AO2 SLP143 T01440067 $
KLGA 180651Z 32006KT 10SM SCT070 14/07 A2995 RMK AO2 SLP143 T01440067 $
KLGA 180551Z 33006KT 10SM CLR 16/07 A2997 RMK AO2 SLP147 T01610072 10211 20150 50002 $

METAR Board
Radar Display
Forecast Discussion

TAF Board Legend

Potential Impact
Threat None Slight Moderate High
Visibility (sm) ≥5.1 5.1>X≥3 3>X≥1 <1
Ceiling (100 ft) ≥30.1 30.1>X≥10 10>X≥5 <5
Wind Speed (kt) <10 10≤X<20 20≤X<30 ≥30
Wind Gust (kt) <15 15≤X<25 25≤X<35 ≥35
Weather No Wx Reported VCTS,-TS,-FZRA,SN TS,FZRA +TS,+FZRA,+SN